createdAt,value
2019-02-12T00:00:25.174Z,102213.95
2019-02-12T00:02:58.464Z,102215.64
2019-02-12T00:05:32.446Z,102230.23
2019-02-12T00:08:05.696Z,102218.36
2019-02-12T00:10:38.996Z,102210.20
2019-02-12T00:13:12.254Z,102219.80
2019-02-12T00:15:45.543Z,102222.20
2019-02-12T00:18:18.830Z,102220.76
2019-02-12T00:20:52.103Z,102232.06
2019-02-12T00:23:25.400Z,102239.98
2019-02-12T00:25:58.921Z,102241.96
2019-02-12T00:28:32.205Z,102251.02
2019-02-12T00:31:07.024Z,102262.58
2019-02-12T00:33:40.311Z,102258.81
2019-02-12T00:36:14.164Z,102263.59
2019-02-12T00:38:47.472Z,102273.50
2019-02-12T00:41:20.749Z,102278.55
2019-02-12T00:43:54.048Z,102276.08
2019-02-12T00:46:27.337Z,102278.72
2019-02-12T00:49:00.617Z,102275.10
2019-02-12T00:51:33.922Z,102271.13
2019-02-12T00:54:07.220Z,102273.19
2019-02-12T00:56:42.116Z,102276.80
2019-02-12T00:59:15.416Z,102279.09
2019-02-12T01:01:48.683Z,102281.91
2019-02-12T01:04:21.964Z,102281.34
2019-02-12T01:06:55.237Z,102274.75
2019-02-12T01:09:28.537Z,102282.77
2019-02-12T01:12:01.891Z,102278.63
2019-02-12T01:14:36.083Z,102271.89
2019-02-12T01:17:09.374Z,102269.67
2019-02-12T01:19:43.223Z,102269.74
2019-02-12T01:22:16.512Z,102271.66
2019-02-12T01:24:49.931Z,102264.39
2019-02-12T01:27:23.209Z,102265.46
2019-02-12T01:29:56.485Z,102266.81
2019-02-12T01:32:29.776Z,102268.77
2019-02-12T01:35:03.067Z,102266.31
2019-02-12T01:37:36.336Z,102275.92
2019-02-12T01:40:11.675Z,102280.94
2019-02-12T01:42:44.949Z,102275.25
2019-02-12T01:45:18.247Z,102278.45
2019-02-12T01:47:52.374Z,102284.41
2019-02-12T01:50:25.659Z,102285.91
2019-02-12T01:52:58.945Z,102288.44
2019-02-12T01:55:32.229Z,102286.62
2019-02-12T01:58:05.549Z,102285.25
2019-02-12T02:00:38.898Z,102291.54
2019-02-12T02:03:12.185Z,102295.83
2019-02-12T02:05:45.449Z,102304.83
2019-02-12T02:08:18.754Z,102314.16
2019-02-12T02:10:53.645Z,102326.27
2019-02-12T02:13:27.613Z,102328.81
2019-02-12T02:16:00.877Z,102328.08
2019-02-12T02:18:34.180Z,102326.28
2019-02-12T02:21:07.452Z,102325.48
2019-02-12T02:23:40.769Z,102321.61
2019-02-12T02:26:14.256Z,102324.81
2019-02-12T02:28:47.552Z,102321.39
2019-02-12T02:31:20.818Z,102326.91
2019-02-12T02:33:55.075Z,102326.84
2019-02-12T02:36:28.373Z,102332.58
2019-02-12T02:39:01.644Z,102330.66
2019-02-12T02:41:35.142Z,102350.20
2019-02-12T02:44:08.453Z,102354.92
2019-02-12T02:46:41.739Z,102352.96
2019-02-12T02:49:15.034Z,102352.91
2019-02-12T02:51:54.056Z,102362.19
2019-02-12T02:54:23.337Z,102361.05
2019-02-12T02:56:56.616Z,102352.55
2019-02-12T02:59:29.926Z,102353.28
2019-02-12T03:02:04.475Z,102353.00
2019-02-12T03:04:38.316Z,102349.35
2019-02-12T03:07:11.582Z,102350.13
2019-02-12T03:09:44.872Z,102367.48
2019-02-12T03:12:18.138Z,102365.05
2019-02-12T03:14:51.431Z,102372.48
2019-02-12T03:17:24.728Z,102365.34
2019-02-12T03:19:58.007Z,102369.95
2019-02-12T03:22:32.916Z,102371.19
2019-02-12T03:25:08.344Z,102370.23
2019-02-12T03:27:41.627Z,102368.31
2019-02-12T03:30:14.909Z,102358.58
2019-02-12T03:32:48.182Z,102353.97
2019-02-12T03:35:21.471Z,102348.50
2019-02-12T03:37:54.746Z,102345.58
2019-02-12T03:40:28.036Z,102349.92
2019-02-12T03:43:02.542Z,102354.52
2019-02-12T03:45:35.909Z,102350.48
2019-02-12T03:48:09.179Z,102358.08
2019-02-12T03:50:42.492Z,102368.43
2019-02-12T03:53:15.782Z,102376.26
2019-02-12T03:55:49.134Z,102377.48
2019-02-12T03:58:22.403Z,102379.98
2019-02-12T04:00:55.691Z,102386.89
2019-02-12T04:03:29.989Z,102393.15
2019-02-12T04:06:03.300Z,102392.52
2019-02-12T04:08:36.566Z,102393.55
2019-02-12T04:11:09.672Z,102393.14
2019-02-12T04:13:42.949Z,102393.70
2019-02-12T04:16:16.259Z,102375.97
2019-02-12T04:18:49.544Z,102372.55
2019-02-12T04:21:24.468Z,102378.07
2019-02-12T04:23:57.740Z,102384.48
2019-02-12T04:26:31.038Z,102391.23
2019-02-12T04:29:05.553Z,102398.60
2019-02-12T04:31:40.419Z,102398.39
2019-02-12T04:34:13.685Z,102401.54
2019-02-12T04:36:46.970Z,102395.12
2019-02-12T04:39:20.224Z,102400.97
2019-02-12T04:41:53.540Z,102407.57
2019-02-12T04:44:26.812Z,102404.92
2019-02-12T04:47:00.104Z,102400.41
2019-02-12T04:49:33.376Z,102405.37
2019-02-12T04:52:06.673Z,102399.11
2019-02-12T04:54:41.506Z,102396.40
2019-02-12T04:57:14.817Z,102400.34
2019-02-12T04:59:48.094Z,102402.44
2019-02-12T05:02:21.402Z,102407.41
2019-02-12T05:04:54.676Z,102405.47
2019-02-12T05:07:27.978Z,102405.94
2019-02-12T05:10:01.268Z,102409.48
2019-02-12T05:12:34.599Z,102410.11
2019-02-12T05:15:09.419Z,102411.73
2019-02-12T05:17:42.723Z,102410.94
2019-02-12T05:20:16.008Z,102400.86
2019-02-12T05:22:49.308Z,102401.64
2019-02-12T05:25:22.588Z,102397.23
2019-02-12T05:27:55.867Z,102398.95
2019-02-12T05:30:29.153Z,102412.38
2019-02-12T05:33:02.453Z,102417.59
2019-02-12T05:35:36.747Z,102412.25
2019-02-12T05:38:10.029Z,102419.48
2019-02-12T05:40:43.311Z,102418.98
2019-02-12T05:43:16.617Z,102417.19
2019-02-12T05:45:49.903Z,102418.81
2019-02-12T05:48:23.190Z,102411.00
2019-02-12T05:50:56.483Z,102418.16
2019-02-12T05:53:29.764Z,102420.78
2019-02-12T05:56:03.539Z,102417.92
2019-02-12T05:58:36.807Z,102419.38
2019-02-12T06:01:10.113Z,102424.38
2019-02-12T06:03:43.382Z,102423.08
2019-02-12T06:06:17.251Z,102424.38
2019-02-12T06:08:50.658Z,102420.00
2019-02-12T06:11:24.017Z,102424.28
2019-02-12T06:13:57.322Z,102425.23
2019-02-12T06:16:30.575Z,102425.23
2019-02-12T06:19:03.869Z,102434.92
2019-02-12T06:21:37.229Z,102434.64
2019-02-12T06:24:10.509Z,102432.17
2019-02-12T06:26:43.782Z,102439.60
2019-02-12T06:29:17.040Z,102430.98
2019-02-12T06:31:50.335Z,102435.36
2019-02-12T06:34:23.640Z,102445.35
2019-02-12T06:36:56.932Z,102445.62
2019-02-12T06:39:30.196Z,102450.13
2019-02-12T06:42:03.507Z,102449.62
2019-02-12T06:44:36.781Z,102461.56
2019-02-12T06:47:10.077Z,102457.23
2019-02-12T06:49:43.357Z,102456.95
2019-02-12T06:52:18.284Z,102457.56
2019-02-12T06:54:51.563Z,102456.27
2019-02-12T06:57:24.878Z,102462.58
2019-02-12T06:59:59.226Z,102466.97
2019-02-12T07:03:08.861Z,102472.50
2019-02-12T07:05:54.420Z,102471.30
2019-02-12T07:08:39.489Z,102475.47
2019-02-12T07:11:32.473Z,102479.03
2019-02-12T07:14:11.607Z,102487.27
2019-02-12T07:16:48.064Z,102493.41
2019-02-12T07:19:27.297Z,102494.52
2019-02-12T07:22:06.462Z,102496.98
2019-02-12T07:24:47.529Z,102506.30
2019-02-12T07:27:23.989Z,102514.08
2019-02-12T07:30:32.301Z,102510.53
2019-02-12T07:33:14.788Z,102519.20
2019-02-12T07:36:06.066Z,102519.02
2019-02-12T07:38:42.845Z,102522.14
2019-02-12T07:41:21.790Z,102527.08
2019-02-12T07:44:04.296Z,102534.52
2019-02-12T07:46:55.718Z,102532.27
2019-02-12T07:49:34.971Z,102529.16
2019-02-12T07:52:43.367Z,102530.18
2019-02-12T07:55:37.786Z,102530.45
2019-02-12T07:58:23.326Z,102525.86
2019-02-12T08:01:02.651Z,102528.65
2019-02-12T08:03:58.689Z,102528.78
2019-02-12T08:06:37.994Z,102534.16
2019-02-12T08:09:27.190Z,102543.17
2019-02-12T08:12:19.805Z,102544.80
2019-02-12T08:15:22.203Z,102552.73
2019-02-12T08:18:28.330Z,102559.59
2019-02-12T08:21:19.960Z,102560.55
2019-02-12T08:24:20.447Z,102554.05
2019-02-12T08:27:08.274Z,102564.34
2019-02-12T08:29:53.794Z,102568.57
2019-02-12T08:32:42.012Z,102564.98
2019-02-12T08:35:42.872Z,102566.17
2019-02-12T08:38:37.725Z,102577.08
2019-02-12T08:41:25.489Z,102576.42
2019-02-12T08:44:21.702Z,102582.53
2019-02-12T08:47:14.986Z,102581.67
2019-02-12T08:50:14.046Z,102584.82
2019-02-12T08:52:59.338Z,102585.61
2019-02-12T08:55:52.552Z,102583.82
2019-02-12T08:58:34.293Z,102579.37
2019-02-12T09:01:16.573Z,102587.52
2019-02-12T09:03:58.938Z,102587.38
2019-02-12T09:06:53.345Z,102590.36
2019-02-12T09:09:46.363Z,102590.38
2019-02-12T09:12:51.928Z,102601.42
2019-02-12T09:15:45.023Z,102609.40
2019-02-12T09:18:42.399Z,102611.23
2019-02-12T09:21:33.297Z,102609.66
2019-02-12T09:24:27.698Z,102609.42
2019-02-12T09:27:19.412Z,102609.47
2019-02-12T09:30:04.906Z,102611.89
2019-02-12T09:32:53.123Z,102623.42
2019-02-12T09:35:32.457Z,102629.45
2019-02-12T09:38:11.724Z,102629.10
2019-02-12T09:41:00.409Z,102620.83
2019-02-12T09:43:53.355Z,102622.30
2019-02-12T09:46:41.813Z,102616.55
2019-02-12T09:49:47.314Z,102610.48
2019-02-12T09:52:57.097Z,102617.13
2019-02-12T09:55:45.381Z,102618.22
2019-02-12T09:58:53.579Z,102624.62
2019-02-12T10:01:51.364Z,102621.27
2019-02-12T10:04:36.624Z,102628.45
2019-02-12T10:07:18.695Z,102633.11
2019-02-12T10:10:19.569Z,102635.15
2019-02-12T10:12:56.017Z,102634.86
2019-02-12T10:15:54.005Z,102640.73
2019-02-12T10:19:03.986Z,102636.52
2019-02-12T10:21:40.414Z,102638.11
2019-02-12T10:24:25.576Z,102638.70
2019-02-12T10:27:22.926Z,102639.23
2019-02-12T10:30:14.535Z,102637.95
2019-02-12T10:32:47.812Z,102640.60
2019-02-12T10:35:21.137Z,102645.82
2019-02-12T10:37:54.417Z,102645.29
2019-02-12T10:40:27.727Z,102645.41
2019-02-12T10:43:01.001Z,102651.65
2019-02-12T10:45:34.325Z,102652.56
2019-02-12T10:48:07.577Z,102654.33
2019-02-12T10:50:41.506Z,102660.03
2019-02-12T10:53:14.711Z,102665.77
2019-02-12T10:55:48.018Z,102670.02
2019-02-12T10:58:21.283Z,102673.22
2019-02-12T11:00:54.573Z,102673.14
2019-02-12T11:03:27.896Z,102671.92
2019-02-12T11:06:01.197Z,102664.49
2019-02-12T11:08:34.285Z,102671.73
2019-02-12T11:11:07.650Z,102674.58
2019-02-12T11:13:40.932Z,102674.74
2019-02-12T11:16:14.234Z,102678.49
2019-02-12T11:18:47.509Z,102667.07
2019-02-12T11:21:20.806Z,102672.05
2019-02-12T11:23:54.070Z,102677.18
2019-02-12T11:26:33.394Z,102676.03
2019-02-12T11:29:07.625Z,102670.01
2019-02-12T11:31:41.894Z,102667.32
2019-02-12T11:34:15.169Z,102663.84
2019-02-12T11:36:48.479Z,102669.72
2019-02-12T11:39:21.835Z,102667.73
2019-02-12T11:41:55.124Z,102666.36
2019-02-12T11:44:28.402Z,102667.03
2019-02-12T11:47:01.757Z,102665.12
2019-02-12T11:49:35.049Z,102664.22
2019-02-12T11:52:08.307Z,102667.79
2019-02-12T11:54:43.685Z,102659.36
2019-02-12T11:57:16.617Z,102667.77
2019-02-12T11:59:50.385Z,102660.58
2019-02-12T12:02:25.335Z,102658.53
2019-02-12T12:04:58.598Z,102663.41
2019-02-12T12:07:32.288Z,102662.62
2019-02-12T12:10:08.570Z,102660.27
2019-02-12T12:12:41.883Z,102661.40
2019-02-12T12:15:15.968Z,102654.48
2019-02-12T12:17:49.240Z,102657.07
2019-02-12T12:20:22.504Z,102656.77
2019-02-12T12:22:55.817Z,102646.06
2019-02-12T12:25:29.079Z,102647.92
2019-02-12T12:28:02.364Z,102642.42
2019-02-12T12:30:35.666Z,102642.32
2019-02-12T12:33:09.007Z,102641.10
2019-02-12T12:35:42.320Z,102634.87
2019-02-12T12:38:15.608Z,102637.58
2019-02-12T12:40:48.935Z,102637.59
2019-02-12T12:43:22.244Z,102636.95
2019-02-12T12:45:55.534Z,102627.55
2019-02-12T12:48:28.804Z,102625.84
2019-02-12T12:51:02.130Z,102630.26
2019-02-12T12:53:36.993Z,102629.88
2019-02-12T12:56:10.268Z,102634.33
2019-02-12T12:58:43.587Z,102626.58
2019-02-12T13:01:16.843Z,102627.41
2019-02-12T13:03:50.159Z,102632.41
2019-02-12T13:06:23.519Z,102624.20
2019-02-12T13:08:56.811Z,102628.27
2019-02-12T13:11:30.090Z,102631.75
2019-02-12T13:14:03.436Z,102632.00
2019-02-12T13:16:38.352Z,102638.07
2019-02-12T13:19:11.701Z,102637.60
2019-02-12T13:21:45.020Z,102632.13
2019-02-12T13:24:18.299Z,102633.98
2019-02-12T13:26:51.601Z,102636.20
2019-02-12T13:29:24.957Z,102629.51
2019-02-12T13:31:58.253Z,102627.61
2019-02-12T13:34:31.527Z,102621.19
2019-02-12T13:37:04.843Z,102625.34
2019-02-12T13:39:38.123Z,102638.62
2019-02-12T13:42:11.483Z,102643.22
2019-02-12T13:44:44.791Z,102642.30
2019-02-12T13:47:18.082Z,102636.45
2019-02-12T13:49:51.373Z,102631.23
2019-02-12T13:52:24.665Z,102633.37
2019-02-12T13:54:57.964Z,102628.21
2019-02-12T13:57:31.256Z,102630.27
2019-02-12T14:00:08.730Z,102623.55
2019-02-12T14:02:42.045Z,102614.34
2019-02-12T14:05:18.466Z,102619.26
2019-02-12T14:07:51.748Z,102618.94
2019-02-12T14:10:25.014Z,102615.14
2019-02-12T14:12:58.316Z,102617.27
2019-02-12T14:15:31.599Z,102612.42
2019-02-12T14:18:05.036Z,102614.84
2019-02-12T14:20:38.331Z,102615.97
2019-02-12T14:23:11.626Z,102620.36
2019-02-12T14:25:44.940Z,102617.84
2019-02-12T14:28:18.224Z,102618.39
2019-02-12T14:30:51.524Z,102628.23
2019-02-12T14:33:24.799Z,102630.02
2019-02-12T14:35:59.692Z,102625.38
2019-02-12T14:38:32.814Z,102629.05
2019-02-12T14:41:06.085Z,102627.17
2019-02-12T14:43:39.379Z,102627.90
2019-02-12T14:46:14.216Z,102625.38
2019-02-12T14:48:47.505Z,102618.45
2019-02-12T14:51:20.806Z,102634.32
2019-02-12T14:53:54.185Z,102630.39
2019-02-12T14:56:27.646Z,102629.08
2019-02-12T14:59:00.935Z,102624.35
2019-02-12T15:01:34.303Z,102626.06
2019-02-12T15:04:07.593Z,102629.38
2019-02-12T15:06:42.422Z,102630.55
2019-02-12T15:09:15.745Z,102625.17
2019-02-12T15:11:50.280Z,102634.77
2019-02-12T15:14:23.675Z,102625.61
2019-02-12T15:16:56.951Z,102622.96
2019-02-12T15:19:30.270Z,102626.03
2019-02-12T15:22:03.532Z,102629.11
2019-02-12T15:24:36.861Z,102629.06
2019-02-12T15:27:10.152Z,102635.86
2019-02-12T15:29:44.232Z,102636.02
2019-02-12T15:32:17.509Z,102634.41
2019-02-12T15:34:50.810Z,102630.72
2019-02-12T15:37:24.088Z,102631.80
2019-02-12T15:39:57.484Z,102631.04
2019-02-12T15:42:31.515Z,102632.09
2019-02-12T15:45:10.413Z,102631.20
2019-02-12T15:47:43.685Z,102632.31
2019-02-12T15:50:17.069Z,102638.47
2019-02-12T15:52:50.649Z,102632.34
2019-02-12T15:55:23.956Z,102630.17
2019-02-12T15:57:57.251Z,102629.66
2019-02-12T16:00:30.537Z,102639.02
2019-02-12T16:03:03.819Z,102637.89
2019-02-12T16:05:37.137Z,102636.99
2019-02-12T16:08:11.874Z,102641.70
2019-02-12T16:10:46.097Z,102645.34
2019-02-12T16:13:19.397Z,102641.90
2019-02-12T16:15:52.693Z,102644.85
2019-02-12T16:18:25.980Z,102657.59
2019-02-12T16:20:59.351Z,102654.13
2019-02-12T16:23:32.615Z,102655.09
2019-02-12T16:26:05.975Z,102651.36
2019-02-12T16:28:39.250Z,102653.82
2019-02-12T16:31:12.544Z,102654.04
2019-02-12T16:33:47.462Z,102658.55
2019-02-12T16:36:20.784Z,102666.25
2019-02-12T16:38:54.069Z,102670.83
2019-02-12T16:41:27.374Z,102674.74
2019-02-12T16:44:00.650Z,102673.92
2019-02-12T16:46:33.931Z,102677.36
2019-02-12T16:49:07.202Z,102679.52
2019-02-12T16:51:40.480Z,102679.59
2019-02-12T16:54:13.798Z,102683.80
2019-02-12T16:56:47.086Z,102685.30
2019-02-12T16:59:20.376Z,102688.85
2019-02-12T17:01:54.528Z,102696.51
2019-02-12T17:04:28.361Z,102705.59
2019-02-12T17:07:01.642Z,102707.31
2019-02-12T17:09:34.931Z,102705.64
2019-02-12T17:12:08.204Z,102711.13
2019-02-12T17:14:41.595Z,102716.44
2019-02-12T17:17:14.883Z,102714.92
2019-02-12T17:19:48.185Z,102727.73
2019-02-12T17:22:21.558Z,102725.73
2019-02-12T17:24:54.859Z,102725.15
2019-02-12T17:27:28.200Z,102729.30
2019-02-12T17:30:01.534Z,102735.95
2019-02-12T17:32:34.805Z,102737.52
2019-02-12T17:35:08.968Z,102728.94
2019-02-12T17:37:42.314Z,102732.48
2019-02-12T17:40:16.837Z,102739.89
2019-02-12T17:42:50.208Z,102739.89
2019-02-12T17:45:23.511Z,102739.35
2019-02-12T17:47:58.278Z,102743.20
2019-02-12T17:50:31.579Z,102742.48
2019-02-12T17:53:04.855Z,102750.77
2019-02-12T17:55:38.264Z,102746.39
2019-02-12T17:58:13.071Z,102753.59
2019-02-12T18:00:46.505Z,102752.02
2019-02-12T18:03:19.799Z,102755.48
2019-02-12T18:05:54.121Z,102759.79
2019-02-12T18:08:27.415Z,102762.95
2019-02-12T18:11:00.738Z,102762.04
2019-02-12T18:13:34.026Z,102758.75
2019-02-12T18:16:07.328Z,102761.44
2019-02-12T18:18:41.695Z,102774.33
2019-02-12T18:21:15.066Z,102774.33
2019-02-12T18:23:48.360Z,102778.78
2019-02-12T18:26:21.674Z,102778.25
2019-02-12T18:28:54.942Z,102781.27
2019-02-12T18:31:28.297Z,102786.78
2019-02-12T18:34:01.590Z,102787.70
2019-02-12T18:36:35.064Z,102789.79
2019-02-12T18:39:08.404Z,102790.93
2019-02-12T18:41:41.826Z,102791.38
2019-02-12T18:44:15.109Z,102781.68
2019-02-12T18:46:48.419Z,102783.25
2019-02-12T18:49:21.725Z,102798.54
2019-02-12T18:51:55.061Z,102790.52
2019-02-12T18:54:28.360Z,102792.94
2019-02-12T18:57:01.689Z,102793.38
2019-02-12T18:59:35.019Z,102800.03
2019-02-12T19:02:08.384Z,102803.09
2019-02-12T19:04:41.739Z,102806.05
2019-02-12T19:07:15.118Z,102813.21
2019-02-12T19:09:48.395Z,102812.25
2019-02-12T19:12:21.812Z,102802.66
2019-02-12T19:14:55.104Z,102804.40
2019-02-12T19:17:29.771Z,102804.16
2019-02-12T19:20:03.020Z,102800.44
2019-02-12T19:22:36.331Z,102814.44
2019-02-12T19:25:10.642Z,102823.84
2019-02-12T19:27:44.019Z,102812.77
2019-02-12T19:30:17.354Z,102818.09
2019-02-12T19:32:50.665Z,102822.00
2019-02-12T19:35:23.946Z,102829.45
2019-02-12T19:37:57.262Z,102830.56
2019-02-12T19:40:30.621Z,102833.02
2019-02-12T19:43:03.933Z,102831.79
2019-02-12T19:45:37.238Z,102837.37
2019-02-12T19:48:10.636Z,102829.27
2019-02-12T19:50:44.103Z,102830.56
2019-02-12T19:53:17.676Z,102829.67
2019-02-12T19:55:51.388Z,102828.77
2019-02-12T19:58:24.665Z,102837.83
2019-02-12T20:00:58.797Z,102831.28
2019-02-12T20:03:32.576Z,102841.57
2019-02-12T20:06:06.659Z,102836.98
2019-02-12T20:08:40.064Z,102838.28
2019-02-12T20:11:13.351Z,102837.17
2019-02-12T20:13:46.704Z,102833.93
2019-02-12T20:16:19.975Z,102833.48
2019-02-12T20:18:53.374Z,102835.94
2019-02-12T20:21:26.704Z,102840.22
2019-02-12T20:24:00.058Z,102841.50
2019-02-12T20:26:33.346Z,102844.07
2019-02-12T20:29:06.692Z,102852.14
2019-02-12T20:31:39.972Z,102850.97
2019-02-12T20:34:13.969Z,102856.95
2019-02-12T20:36:48.013Z,102865.03
2019-02-12T20:39:21.391Z,102865.59
2019-02-12T20:41:54.704Z,102872.56
2019-02-12T20:44:28.092Z,102869.97
2019-02-12T20:47:01.470Z,102876.33
2019-02-12T20:49:34.944Z,102870.77
2019-02-12T20:52:08.172Z,102868.95
2019-02-12T20:54:41.503Z,102867.84
2019-02-12T20:57:15.514Z,102861.51
2019-02-12T20:59:48.989Z,102867.43
2019-02-12T21:02:24.095Z,102868.84
2019-02-12T21:04:57.546Z,102857.59
2019-02-12T21:07:30.926Z,102855.59
2019-02-12T21:10:06.635Z,102856.41
2019-02-12T21:12:40.031Z,102863.34
2019-02-12T21:15:15.861Z,102861.34
2019-02-12T21:17:49.221Z,102866.96
2019-02-12T21:20:22.504Z,102868.17
2019-02-12T21:22:56.725Z,102867.59
2019-02-12T21:25:30.006Z,102860.27
2019-02-12T21:28:03.381Z,102859.36
2019-02-12T21:30:36.730Z,102865.78
2019-02-12T21:33:10.140Z,102874.15
2019-02-12T21:35:43.413Z,102871.45
2019-02-12T21:38:17.591Z,102870.11
2019-02-12T21:40:50.870Z,102863.14
2019-02-12T21:43:24.557Z,102862.55
2019-02-12T21:45:57.847Z,102867.77
2019-02-12T21:48:31.148Z,102874.03
2019-02-12T21:51:04.429Z,102868.48
2019-02-12T21:53:37.755Z,102862.60
2019-02-12T21:56:11.039Z,102872.03
2019-02-12T21:58:44.425Z,102877.33
2019-02-12T22:01:17.696Z,102863.09
2019-02-12T22:03:51.109Z,102861.73
2019-02-12T22:06:24.388Z,102864.96
2019-02-12T22:08:57.682Z,102871.23
2019-02-12T22:11:30.965Z,102872.42
2019-02-12T22:14:04.271Z,102863.02
2019-02-12T22:16:37.551Z,102866.14
2019-02-12T22:19:10.928Z,102869.05
2019-02-12T22:21:44.206Z,102869.91
2019-02-12T22:24:17.503Z,102885.95
2019-02-12T22:26:50.801Z,102882.29
2019-02-12T22:29:24.090Z,102874.71
2019-02-12T22:31:57.385Z,102869.98
2019-02-12T22:34:30.688Z,102874.55
2019-02-12T22:37:05.591Z,102872.66
2019-02-12T22:39:39.022Z,102873.66
2019-02-12T22:42:12.360Z,102879.63
2019-02-12T22:44:45.668Z,102881.09
2019-02-12T22:47:19.243Z,102876.67
2019-02-12T22:49:52.618Z,102869.71
2019-02-12T22:52:25.915Z,102882.18
2019-02-12T22:54:59.202Z,102876.30
2019-02-12T22:57:32.492Z,102889.34
2019-02-12T23:00:26.081Z,102891.91
2019-02-12T23:02:59.436Z,102892.97
2019-02-12T23:05:32.733Z,102891.75
2019-02-12T23:08:06.061Z,102896.86
2019-02-12T23:10:39.371Z,102891.78
2019-02-12T23:13:12.666Z,102884.27
2019-02-12T23:15:46.020Z,102874.60
2019-02-12T23:18:19.305Z,102870.39
2019-02-12T23:20:52.600Z,102874.15
2019-02-12T23:23:25.879Z,102873.41
2019-02-12T23:25:59.189Z,102877.88
2019-02-12T23:28:32.460Z,102882.24
2019-02-12T23:31:05.776Z,102882.34
2019-02-12T23:33:39.051Z,102886.53
2019-02-12T23:36:12.504Z,102891.45
2019-02-12T23:38:45.772Z,102888.59
2019-02-12T23:41:19.085Z,102887.75
2019-02-12T23:43:53.663Z,102887.63
2019-02-12T23:46:26.968Z,102884.19
2019-02-12T23:49:00.231Z,102879.50
2019-02-12T23:51:33.565Z,102889.14
2019-02-12T23:54:06.839Z,102891.55
2019-02-12T23:56:40.177Z,102889.05
2019-02-12T23:59:13.482Z,102893.44
